createdAt,value
2023-02-17T00:04:33.051Z,-0.37
2023-02-17T00:09:34.874Z,-0.30
2023-02-17T00:14:36.492Z,-0.30
2023-02-17T00:19:38.081Z,-0.25
2023-02-17T00:24:41.082Z,-0.29
2023-02-17T00:29:42.760Z,-0.31
2023-02-17T00:34:44.694Z,-0.33
2023-02-17T00:39:46.455Z,-0.34
2023-02-17T00:44:48.108Z,-0.48
2023-02-17T00:49:49.694Z,-0.46
2023-02-17T00:54:51.352Z,-0.57
2023-02-17T00:59:52.965Z,-0.64
2023-02-17T01:04:54.682Z,-0.74
2023-02-17T01:09:56.389Z,-0.79
2023-02-17T01:14:57.975Z,-0.78
2023-02-17T01:19:59.791Z,-0.74
2023-02-17T01:25:01.454Z,-0.70
2023-02-17T01:30:05.209Z,-0.68
2023-02-17T01:35:07.544Z,-0.62
2023-02-17T01:40:12.940Z,-0.59
2023-02-17T01:45:17.715Z,-0.57
2023-02-17T01:50:22.460Z,-0.53
2023-02-17T01:55:25.345Z,-0.53
2023-02-17T02:00:32.250Z,-0.51
2023-02-17T02:05:36.611Z,-0.45
2023-02-17T02:10:39.258Z,-0.37
2023-02-17T02:15:50.853Z,-0.28
2023-02-17T02:21:29.487Z,-0.40
2023-02-17T02:26:37.377Z,-0.38
2023-02-17T02:31:45.133Z,-0.33
2023-02-17T02:36:56.647Z,-0.28
2023-02-17T02:42:03.909Z,-0.24
2023-02-17T02:47:27.559Z,-0.16
2023-02-17T02:52:42.683Z,-0.28
2023-02-17T02:57:50.066Z,-0.18
2023-02-17T03:02:58.609Z,-0.14
2023-02-17T03:08:06.618Z,-0.10
2023-02-17T03:13:08.367Z,-0.01
2023-02-17T03:18:11.838Z,0.05
2023-02-17T03:23:15.523Z,0.13
2023-02-17T03:28:18.538Z,0.16
2023-02-17T03:33:21.326Z,0.26
2023-02-17T03:38:23.171Z,0.28
2023-02-17T03:43:24.880Z,0.30
2023-02-17T03:48:26.684Z,0.33
2023-02-17T03:53:28.319Z,0.43
2023-02-17T03:58:29.957Z,0.50
2023-02-17T04:03:31.759Z,0.57
2023-02-17T04:08:33.644Z,0.67
2023-02-17T04:13:35.820Z,0.71
2023-02-17T04:18:38.494Z,0.75
2023-02-17T04:23:40.308Z,0.77
2023-02-17T04:28:43.957Z,0.85
2023-02-17T04:33:45.686Z,0.85
2023-02-17T04:38:47.313Z,0.98
2023-02-17T04:43:48.912Z,1.04
2023-02-17T04:48:50.543Z,1.13
2023-02-17T04:53:52.148Z,1.17
2023-02-17T04:58:53.911Z,1.23
2023-02-17T05:03:55.471Z,1.32
2023-02-17T05:08:57.179Z,1.44
2023-02-17T05:13:58.780Z,1.55
2023-02-17T05:19:00.428Z,1.61
2023-02-17T05:24:02.460Z,1.66
2023-02-17T05:29:04.099Z,1.66
2023-02-17T05:34:05.912Z,1.72
2023-02-17T05:39:09.028Z,1.80
2023-02-17T05:44:10.699Z,1.95
2023-02-17T05:49:12.349Z,2.03
2023-02-17T05:54:13.981Z,2.10
2023-02-17T05:59:15.720Z,2.13
2023-02-17T06:04:17.409Z,2.22
2023-02-17T06:09:19.073Z,2.32
2023-02-17T06:14:20.715Z,2.18
2023-02-17T06:19:23.623Z,2.24
2023-02-17T06:24:25.278Z,2.21
2023-02-17T06:29:27.817Z,2.23
2023-02-17T06:34:29.401Z,2.27
2023-02-17T06:39:31.215Z,2.36
2023-02-17T06:44:32.835Z,2.62
2023-02-17T06:49:34.470Z,2.83
2023-02-17T06:54:36.080Z,2.97
2023-02-17T06:59:37.919Z,3.05
2023-02-17T07:04:42.473Z,3.15
2023-02-17T07:09:44.141Z,3.23
2023-02-17T07:14:45.782Z,3.35
2023-02-17T07:19:47.648Z,3.44
2023-02-17T07:24:49.260Z,3.57
2023-02-17T07:29:50.942Z,3.60
2023-02-17T07:34:52.567Z,3.72
2023-02-17T07:39:54.319Z,3.88
2023-02-17T07:44:55.911Z,4.22
2023-02-17T07:49:57.499Z,4.65
2023-02-17T07:54:59.336Z,4.99
2023-02-17T08:00:01.491Z,5.25
2023-02-17T08:05:03.328Z,5.42
2023-02-17T08:10:24.321Z,5.65
2023-02-17T08:15:25.955Z,5.87
2023-02-17T08:20:28.097Z,6.07
2023-02-17T08:25:34.856Z,6.18
2023-02-17T08:30:37.045Z,6.30
2023-02-17T08:35:38.709Z,6.52
2023-02-17T08:40:40.395Z,6.71
2023-02-17T08:45:42.144Z,6.86
2023-02-17T08:50:46.705Z,7.06
2023-02-17T08:55:49.725Z,7.25
2023-02-17T09:00:52.119Z,7.45
2023-02-17T09:05:57.725Z,7.66
2023-02-17T09:10:59.525Z,7.88
2023-02-17T09:16:01.746Z,8.08
2023-02-17T09:21:09.253Z,8.24
2023-02-17T09:26:12.690Z,8.52
2023-02-17T09:31:21.057Z,8.69
2023-02-17T09:36:26.185Z,8.86
2023-02-17T09:41:38.277Z,9.09
2023-02-17T09:47:01.796Z,9.09
2023-02-17T09:52:27.684Z,9.09
2023-02-17T09:57:34.370Z,9.17
2023-02-17T10:03:00.602Z,9.15
2023-02-17T10:08:14.915Z,9.14
2023-02-17T10:13:20.184Z,8.34
2023-02-17T10:18:33.284Z,8.34
2023-02-17T10:23:35.190Z,8.49
2023-02-17T10:28:55.382Z,8.69
2023-02-17T10:34:05.772Z,9.62
2023-02-17T10:39:24.642Z,10.05
2023-02-17T10:44:26.385Z,10.35
2023-02-17T10:49:40.028Z,10.59
2023-02-17T10:54:50.949Z,10.69
2023-02-17T10:59:52.573Z,10.78
2023-02-17T11:04:59.822Z,10.97
2023-02-17T11:10:19.761Z,11.06
2023-02-17T11:15:26.045Z,11.22
2023-02-17T11:20:33.627Z,11.29
2023-02-17T11:25:37.817Z,11.42
2023-02-17T11:30:48.825Z,11.59
2023-02-17T11:35:54.984Z,11.70
2023-02-17T11:41:07.642Z,11.83
2023-02-17T11:46:15.310Z,11.98
2023-02-17T11:51:27.561Z,12.07
2023-02-17T11:56:46.656Z,12.18
2023-02-17T12:02:08.472Z,12.33
2023-02-17T12:07:29.271Z,12.52
2023-02-17T12:12:39.650Z,12.72
2023-02-17T12:18:00.167Z,12.90
2023-02-17T12:23:29.687Z,13.08
2023-02-17T12:28:49.752Z,13.22
2023-02-17T12:34:03.877Z,13.32
2023-02-17T12:39:42.180Z,13.38
2023-02-17T12:44:49.534Z,13.48
2023-02-17T12:50:15.274Z,13.52
2023-02-17T12:55:22.054Z,13.55
2023-02-17T13:00:42.202Z,13.41
2023-02-17T13:06:30.265Z,13.26
2023-02-17T13:11:36.061Z,13.12
2023-02-17T13:16:45.807Z,13.02
2023-02-17T13:21:56.166Z,13.02
2023-02-17T13:26:57.843Z,12.94
2023-02-17T13:32:02.522Z,12.97
2023-02-17T13:37:33.795Z,12.87
2023-02-17T13:42:41.512Z,12.83
2023-02-17T13:47:44.696Z,12.79
2023-02-17T13:52:46.341Z,12.79
2023-02-17T13:57:53.094Z,12.81
2023-02-17T14:02:59.123Z,12.85
2023-02-17T14:08:06.674Z,12.81
2023-02-17T14:13:13.262Z,12.82
2023-02-17T14:18:16.807Z,12.82
2023-02-17T14:23:18.374Z,12.84
2023-02-17T14:28:25.908Z,12.86
2023-02-17T14:33:27.522Z,12.94
2023-02-17T14:38:42.311Z,12.93
2023-02-17T14:43:43.919Z,12.94
2023-02-17T14:48:50.240Z,12.96
2023-02-17T14:53:52.853Z,13.01
2023-02-17T14:58:54.583Z,13.08
2023-02-17T15:03:56.406Z,13.10
2023-02-17T15:08:58.071Z,12.98
2023-02-17T15:14:00.330Z,13.03
2023-02-17T15:19:01.931Z,13.02
2023-02-17T15:24:16.004Z,12.95
2023-02-17T15:29:23.228Z,13.06
2023-02-17T15:34:32.207Z,13.21
2023-02-17T15:39:33.783Z,13.30
2023-02-17T15:44:43.155Z,13.40
2023-02-17T15:49:44.971Z,13.45
2023-02-17T15:54:48.268Z,13.55
2023-02-17T15:59:50.598Z,13.60
2023-02-17T16:04:52.222Z,13.68
2023-02-17T16:09:54.668Z,13.69
2023-02-17T16:14:57.476Z,13.64
2023-02-17T16:19:59.114Z,13.76
2023-02-17T16:25:01.008Z,13.88
2023-02-17T16:30:05.626Z,13.90
2023-02-17T16:35:07.457Z,13.98
2023-02-17T16:40:19.795Z,13.99
2023-02-17T16:45:24.771Z,13.86
2023-02-17T16:50:31.212Z,13.86
2023-02-17T16:55:34.838Z,14.02
2023-02-17T17:00:36.706Z,13.91
2023-02-17T17:05:39.480Z,14.00
2023-02-17T17:10:41.916Z,13.90
2023-02-17T17:15:45.337Z,13.97
2023-02-17T17:20:47.714Z,13.92
2023-02-17T17:25:49.543Z,13.93
2023-02-17T17:30:51.388Z,14.03
2023-02-17T17:35:53.608Z,14.07
2023-02-17T17:40:56.926Z,14.03
2023-02-17T17:45:58.862Z,13.93
2023-02-17T17:51:00.535Z,13.94
2023-02-17T17:56:02.261Z,13.94
2023-02-17T18:01:03.966Z,13.92
2023-02-17T18:06:08.787Z,13.95
2023-02-17T18:11:11.699Z,13.96
2023-02-17T18:16:14.533Z,13.88
2023-02-17T18:21:16.682Z,13.98
2023-02-17T18:26:18.613Z,13.93
2023-02-17T18:31:20.664Z,13.96
2023-02-17T18:36:26.028Z,13.92
2023-02-17T18:41:30.514Z,13.86
2023-02-17T18:46:33.767Z,13.90
2023-02-17T18:51:35.765Z,13.82
2023-02-17T18:56:38.027Z,13.91
2023-02-17T19:01:40.962Z,13.83
2023-02-17T19:06:43.168Z,13.77
2023-02-17T19:11:44.817Z,13.79
2023-02-17T19:16:46.392Z,13.80
2023-02-17T19:21:48.407Z,13.79
2023-02-17T19:26:50.249Z,13.77
2023-02-17T19:31:52.057Z,13.77
2023-02-17T19:36:54.002Z,13.78
2023-02-17T19:41:55.620Z,13.88
2023-02-17T19:46:57.537Z,13.80
2023-02-17T19:51:59.527Z,13.79
2023-02-17T19:57:01.144Z,13.95
2023-02-17T20:02:02.927Z,14.00
2023-02-17T20:07:04.584Z,13.98
2023-02-17T20:12:06.484Z,14.02
2023-02-17T20:17:08.332Z,13.98
2023-02-17T20:22:10.253Z,13.88
2023-02-17T20:27:11.896Z,13.93
2023-02-17T20:32:13.888Z,13.87
2023-02-17T20:37:15.808Z,13.78
2023-02-17T20:42:17.438Z,13.69
2023-02-17T20:47:19.039Z,13.69
2023-02-17T20:52:20.924Z,13.71
2023-02-17T20:57:23.418Z,13.68
2023-02-17T21:02:25.236Z,13.56
2023-02-17T21:07:26.926Z,13.53
2023-02-17T21:12:28.771Z,13.54
2023-02-17T21:17:30.384Z,13.52
2023-02-17T21:22:32.148Z,13.54
2023-02-17T21:27:34.372Z,13.51
2023-02-17T21:32:36.170Z,13.46
2023-02-17T21:37:41.236Z,13.49
2023-02-17T21:43:01.738Z,13.50
2023-02-17T21:48:04.291Z,13.52
2023-02-17T21:53:05.917Z,13.51
2023-02-17T21:58:07.482Z,13.44
2023-02-17T22:03:09.064Z,13.40
2023-02-17T22:08:10.691Z,13.39
2023-02-17T22:13:12.497Z,13.40
2023-02-17T22:18:14.272Z,13.42
2023-02-17T22:23:15.875Z,13.41
2023-02-17T22:28:17.565Z,13.41
2023-02-17T22:33:19.334Z,13.42
2023-02-17T22:38:20.928Z,13.38
2023-02-17T22:43:22.828Z,13.42
2023-02-17T22:48:24.742Z,13.39
2023-02-17T22:53:26.317Z,13.36
2023-02-17T22:58:28.668Z,13.38
2023-02-17T23:03:30.445Z,13.37
2023-02-17T23:08:32.195Z,13.38
2023-02-17T23:13:35.974Z,13.36
2023-02-17T23:18:38.811Z,13.34
2023-02-17T23:23:40.493Z,13.31
2023-02-17T23:28:42.336Z,13.32
2023-02-17T23:33:43.909Z,13.28
2023-02-17T23:38:45.557Z,13.23
2023-02-17T23:43:47.264Z,13.23
2023-02-17T23:48:48.999Z,13.27
2023-02-17T23:53:50.624Z,13.32
2023-02-17T23:58:52.247Z,13.37
